createdAt,value
2018-08-04T00:02:06.162Z,100673.80
2018-08-04T00:04:34.188Z,100672.16
2018-08-04T00:07:02.306Z,100674.71
2018-08-04T00:09:30.405Z,100670.60
2018-08-04T00:11:58.494Z,100666.73
2018-08-04T00:14:26.527Z,100666.20
2018-08-04T00:16:54.610Z,100665.12
2018-08-04T00:19:22.699Z,100668.42
2018-08-04T00:21:50.757Z,100665.98
2018-08-04T00:24:18.825Z,100662.71
2018-08-04T00:26:46.900Z,100670.33
2018-08-04T00:29:14.963Z,100664.89
2018-08-04T00:31:43.022Z,100662.21
2018-08-04T00:34:11.118Z,100656.38
2018-08-04T00:36:39.200Z,100653.81
2018-08-04T00:39:07.436Z,100652.33
2018-08-04T00:41:35.803Z,100650.11
2018-08-04T00:44:03.902Z,100651.31
2018-08-04T00:46:31.948Z,100650.84
2018-08-04T00:49:00.016Z,100647.35
2018-08-04T00:51:28.088Z,100647.36
2018-08-04T00:53:56.148Z,100649.37
2018-08-04T00:56:24.206Z,100647.53
2018-08-04T00:58:52.258Z,100648.95
2018-08-04T01:01:20.306Z,100643.16
2018-08-04T01:03:48.353Z,100641.28
2018-08-04T01:06:16.448Z,100647.92
2018-08-04T01:08:44.503Z,100650.94
2018-08-04T01:11:12.567Z,100649.31
2018-08-04T01:13:40.708Z,100648.00
2018-08-04T01:16:08.803Z,100648.83
2018-08-04T01:18:36.873Z,100645.72
2018-08-04T01:21:04.944Z,100653.67
2018-08-04T01:23:32.994Z,100650.11
2018-08-04T01:26:01.270Z,100654.50
2018-08-04T01:28:29.328Z,100653.60
2018-08-04T01:30:57.430Z,100648.33
2018-08-04T01:33:25.480Z,100647.81
2018-08-04T01:35:53.644Z,100641.22
2018-08-04T01:38:21.715Z,100641.94
2018-08-04T01:40:49.843Z,100639.84
2018-08-04T01:43:17.895Z,100641.22
2018-08-04T01:45:45.951Z,100641.00
2018-08-04T01:48:14.033Z,100631.97
2018-08-04T01:50:42.175Z,100635.81
2018-08-04T01:53:10.415Z,100631.00
2018-08-04T01:55:38.499Z,100632.59
2018-08-04T01:58:06.568Z,100634.28
2018-08-04T02:00:34.627Z,100634.31
2018-08-04T02:03:02.686Z,100639.51
2018-08-04T02:05:30.769Z,100634.61
2018-08-04T02:07:58.810Z,100637.36
2018-08-04T02:10:26.881Z,100637.37
2018-08-04T02:12:54.931Z,100636.27
2018-08-04T02:15:22.996Z,100637.09
2018-08-04T02:17:51.059Z,100632.17
2018-08-04T02:20:19.113Z,100635.72
2018-08-04T02:22:47.208Z,100634.36
2018-08-04T02:25:15.271Z,100636.48
2018-08-04T02:27:43.328Z,100638.91
2018-08-04T02:30:11.392Z,100640.05
2018-08-04T02:32:39.579Z,100630.74
2018-08-04T02:35:07.712Z,100629.94
2018-08-04T02:37:35.756Z,100631.02
2018-08-04T02:40:03.810Z,100632.36
2018-08-04T02:42:31.865Z,100623.37
2018-08-04T02:44:59.933Z,100623.36
2018-08-04T02:47:27.987Z,100626.09
2018-08-04T02:49:56.045Z,100622.52
2018-08-04T02:52:24.115Z,100620.05
2018-08-04T02:54:52.174Z,100617.89
2018-08-04T02:57:20.246Z,100614.88
2018-08-04T02:59:48.320Z,100615.16
2018-08-04T03:02:16.384Z,100615.70
2018-08-04T03:04:44.511Z,100625.80
2018-08-04T03:07:12.607Z,100625.73
2018-08-04T03:09:40.661Z,100622.28
2018-08-04T03:12:08.723Z,100624.52
2018-08-04T03:14:36.763Z,100626.44
2018-08-04T03:17:04.847Z,100622.05
2018-08-04T03:19:32.903Z,100621.23
2018-08-04T03:22:01.004Z,100625.31
2018-08-04T03:24:29.155Z,100624.74
2018-08-04T03:26:57.232Z,100622.58
2018-08-04T03:29:25.363Z,100627.77
2018-08-04T03:31:53.446Z,100628.84
2018-08-04T03:34:21.498Z,100621.72
2018-08-04T03:36:49.587Z,100623.37
2018-08-04T03:39:17.650Z,100625.03
2018-08-04T03:41:45.722Z,100626.39
2018-08-04T03:44:13.790Z,100629.12
2018-08-04T03:46:41.860Z,100632.91
2018-08-04T03:49:09.929Z,100629.64
2018-08-04T03:51:37.999Z,100631.55
2018-08-04T03:54:06.122Z,100627.98
2018-08-04T03:56:34.187Z,100629.89
2018-08-04T03:59:02.248Z,100635.33
2018-08-04T04:01:30.308Z,100625.22
2018-08-04T04:03:58.394Z,100630.14
2018-08-04T04:06:26.463Z,100634.75
2018-08-04T04:08:54.568Z,100635.90
2018-08-04T04:11:22.650Z,100639.20
2018-08-04T04:13:51.531Z,100641.97
2018-08-04T04:16:19.582Z,100642.81
2018-08-04T04:18:47.680Z,100637.31
2018-08-04T04:21:15.775Z,100639.78
2018-08-04T04:23:43.847Z,100641.94
2018-08-04T04:26:11.971Z,100643.48
2018-08-04T04:28:40.027Z,100642.16
2018-08-04T04:31:08.096Z,100651.77
2018-08-04T04:33:36.167Z,100647.16
2018-08-04T04:36:04.251Z,100645.24
2018-08-04T04:38:32.308Z,100650.14
2018-08-04T04:41:00.395Z,100648.77
2018-08-04T04:43:28.451Z,100652.08
2018-08-04T04:45:56.504Z,100647.17
2018-08-04T04:48:24.578Z,100658.66
2018-08-04T04:50:52.615Z,100659.48
2018-08-04T04:53:20.668Z,100659.48
2018-08-04T04:55:48.755Z,100654.81
2018-08-04T04:58:16.811Z,100661.63
2018-08-04T05:00:44.864Z,100659.11
2018-08-04T05:03:12.966Z,100661.84
2018-08-04T05:05:41.013Z,100666.16
2018-08-04T05:08:09.088Z,100665.07
2018-08-04T05:10:37.152Z,100666.12
2018-08-04T05:13:05.310Z,100669.41
2018-08-04T05:15:33.346Z,100669.41
2018-08-04T05:18:01.416Z,100669.11
2018-08-04T05:20:29.497Z,100671.84
2018-08-04T05:22:57.542Z,100675.30
2018-08-04T05:25:25.614Z,100675.25
2018-08-04T05:27:53.692Z,100678.81
2018-08-04T05:30:21.747Z,100681.20
2018-08-04T05:32:49.811Z,100675.13
2018-08-04T05:35:17.862Z,100672.08
2018-08-04T05:37:45.940Z,100679.94
2018-08-04T05:40:14.026Z,100682.08
2018-08-04T05:42:42.276Z,100679.79
2018-08-04T05:45:10.659Z,100673.44
2018-08-04T05:47:39.042Z,100678.27
2018-08-04T05:50:07.586Z,100676.31
2018-08-04T05:52:35.911Z,100682.98
2018-08-04T05:55:04.108Z,100688.15
2018-08-04T05:57:32.222Z,100693.23
2018-08-04T06:00:00.512Z,100690.95
2018-08-04T06:02:28.608Z,100689.50
2018-08-04T06:04:56.698Z,100683.16
2018-08-04T06:07:24.756Z,100691.93
2018-08-04T06:09:53.142Z,100684.80
2018-08-04T06:12:21.214Z,100685.05
2018-08-04T06:14:49.283Z,100684.28
2018-08-04T06:17:17.377Z,100681.45
2018-08-04T06:19:45.463Z,100676.31
2018-08-04T06:22:13.590Z,100677.63
2018-08-04T06:24:41.658Z,100679.46
2018-08-04T06:27:09.744Z,100678.69
2018-08-04T06:29:37.788Z,100676.65
2018-08-04T06:32:05.983Z,100675.83
2018-08-04T06:34:34.062Z,100677.09
2018-08-04T06:37:02.207Z,100688.42
2018-08-04T06:39:30.296Z,100696.89
2018-08-04T06:41:58.352Z,100698.61
2018-08-04T06:44:26.476Z,100702.41
2018-08-04T06:46:54.712Z,100699.77
2018-08-04T06:49:22.791Z,100698.70
2018-08-04T06:51:50.847Z,100698.24
2018-08-04T06:54:18.924Z,100692.68
2018-08-04T06:56:47.044Z,100692.27
2018-08-04T06:59:15.139Z,100692.52
2018-08-04T07:01:43.204Z,100700.86
2018-08-04T07:04:11.252Z,100702.06
2018-08-04T07:06:39.347Z,100699.87
2018-08-04T07:09:08.576Z,100700.41
2018-08-04T07:11:36.622Z,100700.78
2018-08-04T07:14:05.030Z,100694.14
2018-08-04T07:16:33.087Z,100690.55
2018-08-04T07:19:01.135Z,100693.50
2018-08-04T07:21:29.254Z,100694.24
2018-08-04T07:23:57.299Z,100692.31
2018-08-04T07:26:25.364Z,100688.21
2018-08-04T07:28:53.474Z,100688.77
2018-08-04T07:31:21.531Z,100690.67
2018-08-04T07:33:49.647Z,100692.62
2018-08-04T07:36:17.767Z,100694.22
2018-08-04T07:38:45.892Z,100698.37
2018-08-04T07:41:13.996Z,100691.95
2018-08-04T07:43:42.132Z,100693.78
2018-08-04T07:46:10.195Z,100699.05
2018-08-04T07:48:38.244Z,100695.50
2018-08-04T07:51:06.403Z,100695.63
2018-08-04T07:53:34.543Z,100692.95
2018-08-04T07:56:02.545Z,100691.75
2018-08-04T07:58:30.595Z,100690.59
2018-08-04T08:00:58.714Z,100690.48
2018-08-04T08:03:26.824Z,100694.17
2018-08-04T08:05:55.119Z,100697.17
2018-08-04T08:08:23.182Z,100683.45
2018-08-04T08:10:51.479Z,100689.02
2018-08-04T08:13:19.471Z,100683.84
2018-08-04T08:15:47.566Z,100680.48
2018-08-04T08:18:15.666Z,100684.21
2018-08-04T08:20:43.735Z,100685.08
2018-08-04T08:23:11.897Z,100680.61
2018-08-04T08:25:40.494Z,100679.70
2018-08-04T08:28:08.603Z,100674.70
2018-08-04T08:30:36.671Z,100674.32
2018-08-04T08:33:04.744Z,100675.81
2018-08-04T08:35:32.810Z,100679.47
2018-08-04T08:38:00.886Z,100681.53
2018-08-04T08:40:29.006Z,100680.97
2018-08-04T08:42:57.031Z,100681.42
2018-08-04T08:45:25.075Z,100684.26
2018-08-04T08:47:53.170Z,100682.81
2018-08-04T08:50:21.222Z,100682.25
2018-08-04T08:52:49.286Z,100680.38
2018-08-04T08:55:17.354Z,100680.03
2018-08-04T08:57:45.441Z,100678.73
2018-08-04T09:00:13.522Z,100678.15
2018-08-04T09:02:41.604Z,100666.19
2018-08-04T09:05:10.404Z,100671.17
2018-08-04T09:07:38.460Z,100676.33
2018-08-04T09:10:08.839Z,100668.58
2018-08-04T09:12:36.900Z,100671.97
2018-08-04T09:15:05.257Z,100674.69
2018-08-04T09:17:33.305Z,100669.31
2018-08-04T09:20:01.377Z,100665.50
2018-08-04T09:22:29.459Z,100663.44
2018-08-04T09:24:57.798Z,100657.67
2018-08-04T09:27:25.869Z,100661.44
2018-08-04T09:29:53.950Z,100657.77
2018-08-04T09:32:22.017Z,100652.91
2018-08-04T09:34:50.090Z,100657.70
2018-08-04T09:37:18.158Z,100658.09
2018-08-04T09:39:46.219Z,100653.30
2018-08-04T09:42:14.299Z,100651.27
2018-08-04T09:44:42.390Z,100653.46
2018-08-04T09:47:10.418Z,100653.63
2018-08-04T09:49:38.468Z,100654.27
2018-08-04T09:52:06.670Z,100648.16
2018-08-04T09:54:34.691Z,100646.58
2018-08-04T09:57:02.734Z,100650.14
2018-08-04T09:59:30.807Z,100650.03
2018-08-04T10:02:04.321Z,100645.91
2018-08-04T10:04:32.410Z,100646.58
2018-08-04T10:07:00.502Z,100639.29
2018-08-04T10:09:28.587Z,100635.10
2018-08-04T10:11:56.655Z,100635.37
2018-08-04T10:14:24.723Z,100640.02
2018-08-04T10:16:52.788Z,100642.84
2018-08-04T10:19:20.851Z,100643.70
2018-08-04T10:21:48.886Z,100642.31
2018-08-04T10:24:16.956Z,100648.01
2018-08-04T10:26:45.007Z,100643.84
2018-08-04T10:29:13.076Z,100641.20
2018-08-04T10:31:41.127Z,100635.82
2018-08-04T10:34:09.207Z,100637.33
2018-08-04T10:36:37.276Z,100631.47
2018-08-04T10:39:07.296Z,100635.94
2018-08-04T10:41:35.378Z,100640.66
2018-08-04T10:44:04.627Z,100633.31
2018-08-04T10:46:32.666Z,100627.00
2018-08-04T10:49:00.750Z,100632.91
2018-08-04T10:51:28.826Z,100623.55
2018-08-04T10:53:56.890Z,100628.87
2018-08-04T10:56:24.942Z,100621.81
2018-08-04T10:58:53.114Z,100627.13
2018-08-04T11:01:21.174Z,100625.59
2018-08-04T11:03:49.328Z,100618.92
2018-08-04T11:06:17.381Z,100620.28
2018-08-04T11:08:45.492Z,100614.22
2018-08-04T11:11:13.564Z,100616.77
2018-08-04T11:13:41.652Z,100619.02
2018-08-04T11:16:09.723Z,100618.38
2018-08-04T11:18:37.769Z,100620.08
2018-08-04T11:21:05.948Z,100617.75
2018-08-04T11:23:34.025Z,100614.89
2018-08-04T11:26:02.094Z,100615.32
2018-08-04T11:28:30.135Z,100607.06
2018-08-04T11:30:58.268Z,100601.45
2018-08-04T11:33:26.263Z,100591.94
2018-08-04T11:35:54.401Z,100601.63
2018-08-04T11:38:22.456Z,100608.19
2018-08-04T11:40:50.547Z,100606.69
2018-08-04T11:43:18.591Z,100613.78
2018-08-04T11:45:46.738Z,100603.89
2018-08-04T11:48:14.791Z,100616.90
2018-08-04T11:50:42.843Z,100618.13
2018-08-04T11:53:11.005Z,100610.52
2018-08-04T11:55:39.081Z,100614.95
2018-08-04T11:58:07.193Z,100614.02
2018-08-04T12:00:35.271Z,100614.95
2018-08-04T12:03:03.352Z,100598.98
2018-08-04T12:05:31.494Z,100601.66
2018-08-04T12:07:59.542Z,100599.93
2018-08-04T12:10:27.608Z,100599.02
2018-08-04T12:12:55.709Z,100595.78
2018-08-04T12:15:23.867Z,100585.23
2018-08-04T12:17:52.018Z,100584.89
2018-08-04T12:20:20.150Z,100575.07
2018-08-04T12:22:48.210Z,100578.20
2018-08-04T12:25:16.277Z,100584.09
2018-08-04T12:27:44.331Z,100588.15
2018-08-04T12:30:12.507Z,100583.61
2018-08-04T12:32:40.589Z,100586.17
2018-08-04T12:35:09.210Z,100590.23
2018-08-04T12:37:37.334Z,100589.98
2018-08-04T12:40:05.408Z,100584.64
2018-08-04T12:42:33.479Z,100585.66
2018-08-04T12:45:01.594Z,100575.08
2018-08-04T12:47:29.692Z,100581.22
2018-08-04T12:49:57.795Z,100578.31
2018-08-04T12:52:25.856Z,100568.45
2018-08-04T12:54:53.932Z,100566.89
2018-08-04T12:57:22.451Z,100562.75
2018-08-04T12:59:50.510Z,100545.84
2018-08-04T13:02:18.584Z,100548.64
2018-08-04T13:04:47.036Z,100544.89
2018-08-04T13:07:15.110Z,100547.11
2018-08-04T13:09:43.212Z,100538.91
2018-08-04T13:12:11.285Z,100541.05
2018-08-04T13:14:39.360Z,100540.23
2018-08-04T13:17:07.457Z,100533.67
2018-08-04T13:19:35.539Z,100523.48
2018-08-04T13:22:03.853Z,100531.61
2018-08-04T13:24:32.091Z,100523.77
2018-08-04T13:27:00.230Z,100523.89
2018-08-04T13:29:28.321Z,100516.59
2018-08-04T13:31:56.446Z,100516.72
2018-08-04T13:34:24.520Z,100517.97
2018-08-04T13:36:52.629Z,100518.31
2018-08-04T13:39:20.658Z,100515.13
2018-08-04T13:41:48.764Z,100531.98
2018-08-04T13:44:16.827Z,100532.36
2018-08-04T13:46:44.920Z,100539.79
2018-08-04T13:49:13.001Z,100542.00
2018-08-04T13:51:41.218Z,100534.28
2018-08-04T13:54:09.303Z,100531.52
2018-08-04T13:56:37.371Z,100540.56
2018-08-04T13:59:05.501Z,100531.80
2018-08-04T14:01:33.577Z,100540.78
2018-08-04T14:04:01.657Z,100529.05
2018-08-04T14:06:29.998Z,100532.86
2018-08-04T14:08:58.052Z,100537.28
2018-08-04T14:11:26.151Z,100537.73
2018-08-04T14:13:54.282Z,100525.00
2018-08-04T14:16:22.439Z,100528.14
2018-08-04T14:18:50.548Z,100520.81
2018-08-04T14:21:18.657Z,100522.06
2018-08-04T14:23:46.824Z,100524.58
2018-08-04T14:26:14.962Z,100524.50
2018-08-04T14:28:43.051Z,100522.62
2018-08-04T14:31:11.104Z,100521.05
2018-08-04T14:33:39.170Z,100523.28
2018-08-04T14:36:07.309Z,100519.85
2018-08-04T14:38:35.371Z,100513.59
2018-08-04T14:41:03.443Z,100520.41
2018-08-04T14:43:31.502Z,100526.76
2018-08-04T14:45:59.670Z,100527.63
2018-08-04T14:48:27.780Z,100526.52
2018-08-04T14:50:55.847Z,100526.88
2018-08-04T14:53:23.906Z,100531.41
2018-08-04T14:55:52.004Z,100522.17
2018-08-04T14:58:20.045Z,100525.95
2018-08-04T15:00:48.107Z,100526.78
2018-08-04T15:03:16.197Z,100519.48
2018-08-04T15:05:44.272Z,100514.62
2018-08-04T15:08:12.340Z,100519.58
2018-08-04T15:10:40.555Z,100512.95
2018-08-04T15:13:08.604Z,100516.52
2018-08-04T15:15:36.765Z,100514.53
2018-08-04T15:18:05.077Z,100515.20
2018-08-04T15:20:33.142Z,100500.16
2018-08-04T15:23:01.344Z,100504.33
2018-08-04T15:25:29.430Z,100497.10
2018-08-04T15:27:57.539Z,100503.84
2018-08-04T15:30:25.646Z,100499.98
2018-08-04T15:32:53.731Z,100491.69
2018-08-04T15:35:21.956Z,100503.15
2018-08-04T15:37:50.047Z,100496.16
2018-08-04T15:40:18.110Z,100491.33
2018-08-04T15:42:46.187Z,100491.66
2018-08-04T15:45:14.255Z,100483.72
2018-08-04T15:47:42.371Z,100488.30
2018-08-04T15:50:10.427Z,100487.73
2018-08-04T15:52:38.698Z,100489.39
2018-08-04T15:55:06.838Z,100492.47
2018-08-04T15:57:34.911Z,100490.63
2018-08-04T16:00:02.995Z,100494.52
2018-08-04T16:02:31.061Z,100491.13
2018-08-04T16:04:59.581Z,100486.21
2018-08-04T16:07:27.641Z,100482.73
2018-08-04T16:09:56.198Z,100480.35
2018-08-04T16:12:24.300Z,100479.62
2018-08-04T16:14:52.366Z,100475.62
2018-08-04T16:17:20.414Z,100484.74
2018-08-04T16:19:48.531Z,100487.31
2018-08-04T16:22:16.686Z,100491.34
2018-08-04T16:24:44.734Z,100481.84
2018-08-04T16:27:12.888Z,100484.98
2018-08-04T16:29:40.967Z,100480.92
2018-08-04T16:32:09.037Z,100477.17
2018-08-04T16:34:37.094Z,100474.84
2018-08-04T16:37:05.178Z,100482.58
2018-08-04T16:39:33.286Z,100484.13
2018-08-04T16:42:01.417Z,100477.56
2018-08-04T16:44:29.394Z,100480.05
2018-08-04T16:46:57.467Z,100482.73
2018-08-04T16:49:25.638Z,100485.08
2018-08-04T16:51:53.766Z,100487.05
2018-08-04T16:54:21.883Z,100485.99
2018-08-04T16:56:49.964Z,100483.70
2018-08-04T16:59:18.044Z,100488.55
2018-08-04T17:01:46.108Z,100487.49
2018-08-04T17:04:14.185Z,100484.13
2018-08-04T17:06:42.255Z,100492.14
2018-08-04T17:09:11.953Z,100488.70
2018-08-04T17:11:40.032Z,100489.20
2018-08-04T17:14:08.727Z,100482.39
2018-08-04T17:16:36.824Z,100495.44
2018-08-04T17:19:04.916Z,100490.35
2018-08-04T17:21:32.985Z,100494.24
2018-08-04T17:24:01.014Z,100491.74
2018-08-04T17:26:29.210Z,100499.08
2018-08-04T17:28:57.294Z,100498.58
2018-08-04T17:31:25.358Z,100494.58
2018-08-04T17:33:53.539Z,100502.33
2018-08-04T17:36:21.827Z,100504.45
2018-08-04T17:38:49.922Z,100505.64
2018-08-04T17:41:18.062Z,100506.80
2018-08-04T17:43:46.123Z,100505.41
2018-08-04T17:46:14.227Z,100502.61
2018-08-04T17:48:42.294Z,100512.08
2018-08-04T17:51:10.486Z,100507.44
2018-08-04T17:53:38.559Z,100511.28
2018-08-04T17:56:06.682Z,100516.48
2018-08-04T17:58:34.824Z,100513.04
2018-08-04T18:01:02.909Z,100521.80
2018-08-04T18:03:31.341Z,100522.88
2018-08-04T18:05:59.505Z,100527.28
2018-08-04T18:08:27.653Z,100531.42
2018-08-04T18:10:55.777Z,100526.89
2018-08-04T18:13:24.758Z,100530.81
2018-08-04T18:15:53.032Z,100529.69
2018-08-04T18:18:21.150Z,100529.80
2018-08-04T18:20:49.519Z,100535.83
2018-08-04T18:23:17.639Z,100544.59
2018-08-04T18:25:45.756Z,100546.20
2018-08-04T18:28:13.853Z,100544.45
2018-08-04T18:30:42.894Z,100547.36
2018-08-04T18:33:11.021Z,100545.35
2018-08-04T18:35:39.431Z,100551.48
2018-08-04T18:38:07.615Z,100545.01
2018-08-04T18:40:35.731Z,100548.10
2018-08-04T18:43:03.851Z,100552.41
2018-08-04T18:45:31.983Z,100560.25
2018-08-04T18:48:00.290Z,100567.19
2018-08-04T18:50:28.700Z,100570.59
2018-08-04T18:52:56.865Z,100577.31
2018-08-04T18:55:24.945Z,100578.54
2018-08-04T18:57:53.020Z,100576.34
2018-08-04T19:00:21.119Z,100581.09
2018-08-04T19:02:49.273Z,100579.61
2018-08-04T19:05:17.398Z,100580.15
2018-08-04T19:07:45.525Z,100588.48
2018-08-04T19:10:13.816Z,100583.81
2018-08-04T19:12:41.915Z,100589.71
2018-08-04T19:15:12.663Z,100590.54
2018-08-04T19:17:40.783Z,100589.59
2018-08-04T19:20:08.896Z,100596.13
2018-08-04T19:22:36.991Z,100604.22
2018-08-04T19:25:05.742Z,100606.25
2018-08-04T19:27:33.845Z,100601.32
2018-08-04T19:30:02.091Z,100610.28
2018-08-04T19:32:30.177Z,100607.15
2018-08-04T19:34:58.267Z,100613.42
2018-08-04T19:37:26.421Z,100613.17
2018-08-04T19:39:54.523Z,100613.42
2018-08-04T19:42:22.606Z,100619.59
2018-08-04T19:44:50.737Z,100622.33
2018-08-04T19:47:18.817Z,100624.78
2018-08-04T19:49:46.924Z,100618.82
2018-08-04T19:52:15.412Z,100630.48
2018-08-04T19:54:43.746Z,100636.44
2018-08-04T19:57:11.841Z,100633.73
2018-08-04T19:59:39.948Z,100635.28
2018-08-04T20:02:08.078Z,100633.05
2018-08-04T20:04:36.201Z,100637.13
2018-08-04T20:07:04.288Z,100646.41
2018-08-04T20:09:32.396Z,100643.97
2018-08-04T20:12:00.596Z,100646.96
2018-08-04T20:14:28.709Z,100657.31
2018-08-04T20:16:56.926Z,100659.89
2018-08-04T20:19:25.036Z,100660.79
2018-08-04T20:21:53.125Z,100660.84
2018-08-04T20:24:21.271Z,100667.35
2018-08-04T20:26:49.397Z,100673.13
2018-08-04T20:29:17.537Z,100679.77
2018-08-04T20:31:45.880Z,100677.49
2018-08-04T20:34:13.979Z,100674.34
2018-08-04T20:36:42.106Z,100668.80
2018-08-04T20:39:10.745Z,100673.18
2018-08-04T20:41:38.867Z,100673.35
2018-08-04T20:44:07.108Z,100677.39
2018-08-04T20:46:35.217Z,100671.80
2018-08-04T20:49:03.368Z,100680.92
2018-08-04T20:51:31.470Z,100691.14
2018-08-04T20:53:59.599Z,100684.17
2018-08-04T20:56:27.727Z,100684.53
2018-08-04T20:58:55.852Z,100688.67
2018-08-04T21:01:32.334Z,100685.19
2018-08-04T21:04:00.431Z,100685.02
2018-08-04T21:06:28.543Z,100684.64
2018-08-04T21:08:56.641Z,100682.19
2018-08-04T21:11:24.750Z,100678.55
2018-08-04T21:13:52.876Z,100679.21
2018-08-04T21:16:21.089Z,100682.24
2018-08-04T21:18:49.217Z,100688.64
2018-08-04T21:21:17.340Z,100689.58
2018-08-04T21:23:45.466Z,100683.06
2018-08-04T21:26:13.543Z,100685.70
2018-08-04T21:28:41.778Z,100683.64
2018-08-04T21:31:09.857Z,100683.50
2018-08-04T21:33:38.035Z,100687.10
2018-08-04T21:36:06.161Z,100686.95
2018-08-04T21:38:35.320Z,100691.27
2018-08-04T21:41:07.354Z,100700.61
2018-08-04T21:43:36.114Z,100697.08
2018-08-04T21:46:04.222Z,100705.28
2018-08-04T21:48:38.323Z,100709.73
2018-08-04T21:51:06.711Z,100704.14
2018-08-04T21:53:41.446Z,100710.34
2018-08-04T21:56:09.533Z,100708.96
2018-08-04T21:58:37.983Z,100712.73
2018-08-04T22:01:12.081Z,100711.45
2018-08-04T22:03:41.501Z,100708.19
2018-08-04T22:06:15.411Z,100712.80
2018-08-04T22:08:54.712Z,100717.29
2018-08-04T22:11:22.759Z,100715.99
2018-08-04T22:13:50.818Z,100714.52
2018-08-04T22:16:18.852Z,100719.95
2018-08-04T22:18:46.918Z,100722.27
2018-08-04T22:21:15.037Z,100718.19
2018-08-04T22:23:43.110Z,100714.82
2018-08-04T22:26:11.168Z,100712.62
2018-08-04T22:28:39.226Z,100717.22
2018-08-04T22:31:07.319Z,100717.78
2018-08-04T22:33:35.624Z,100723.38
2018-08-04T22:36:03.670Z,100726.71
2018-08-04T22:38:31.701Z,100730.80
2018-08-04T22:40:59.774Z,100732.50
2018-08-04T22:43:27.828Z,100736.28
2018-08-04T22:46:04.123Z,100735.53
2018-08-04T22:48:32.327Z,100736.47
2018-08-04T22:51:00.529Z,100744.95
2018-08-04T22:53:28.862Z,100740.83
2018-08-04T22:55:57.020Z,100739.53
2018-08-04T22:58:25.200Z,100742.05
2018-08-04T23:00:53.368Z,100742.84
2018-08-04T23:03:21.519Z,100733.28
2018-08-04T23:05:49.931Z,100735.98
2018-08-04T23:08:18.038Z,100735.52
2018-08-04T23:10:46.131Z,100735.24
2018-08-04T23:13:14.800Z,100735.45
2018-08-04T23:15:42.867Z,100739.96
2018-08-04T23:18:10.982Z,100741.75
2018-08-04T23:20:39.036Z,100743.20
2018-08-04T23:23:07.895Z,100735.67
2018-08-04T23:25:35.954Z,100739.73
2018-08-04T23:28:04.001Z,100735.92
2018-08-04T23:30:32.036Z,100742.91
2018-08-04T23:33:00.083Z,100748.37
2018-08-04T23:35:28.455Z,100744.24
2018-08-04T23:37:56.499Z,100745.66
2018-08-04T23:40:24.658Z,100751.05
2018-08-04T23:42:52.722Z,100751.67
2018-08-04T23:45:20.876Z,100744.24
2018-08-04T23:47:48.962Z,100748.98
2018-08-04T23:50:17.051Z,100750.77
2018-08-04T23:52:45.064Z,100747.98
2018-08-04T23:55:13.128Z,100749.02
2018-08-04T23:57:41.199Z,100758.33
